sensor_id;sensor_type;location;lat;lon;timestamp;pressure;altitude;pressure_sealevel;temperature;humidity
7966;BME280;4028;43.272;26.932;2022-11-24T00:01:52;98097.44;;;9.29;100.00
7966;BME280;4028;43.272;26.932;2022-11-24T00:04:18;98110.66;;;9.29;100.00
7966;BME280;4028;43.272;26.932;2022-11-24T00:06:43;98112.28;;;9.30;100.00
7966;BME280;4028;43.272;26.932;2022-11-24T00:09:09;98110.78;;;9.20;100.00
7966;BME280;4028;43.272;26.932;2022-11-24T00:11:35;98104.72;;;9.27;100.00
7966;BME280;4028;43.272;26.932;2022-11-24T00:14:01;98113.59;;;9.26;100.00
7966;BME280;4028;43.272;26.932;2022-11-24T00:16:32;98122.84;;;9.22;100.00
7966;BME280;4028;43.272;26.932;2022-11-24T00:19:00;98121.97;;;9.14;100.00
7966;BME280;4028;43.272;26.932;2022-11-24T00:21:27;98118.19;;;9.16;100.00
7966;BME280;4028;43.272;26.932;2022-11-24T00:23:53;98117.41;;;9.24;100.00
7966;BME280;4028;43.272;26.932;2022-11-24T00:28:47;98115.28;;;9.27;100.00
7966;BME280;4028;43.272;26.932;2022-11-24T00:33:40;98113.06;;;9.15;100.00
7966;BME280;4028;43.272;26.932;2022-11-24T00:36:05;98115.72;;;9.15;100.00
7966;BME280;4028;43.272;26.932;2022-11-24T00:38:31;98113.75;;;9.25;100.00
7966;BME280;4028;43.272;26.932;2022-11-24T00:40:56;98108.81;;;9.30;100.00
7966;BME280;4028;43.272;26.932;2022-11-24T00:43:22;98102.91;;;9.28;100.00
7966;BME280;4028;43.272;26.932;2022-11-24T00:45:47;98109.69;;;9.38;100.00
7966;BME280;4028;43.272;26.932;2022-11-24T00:48:13;98116.09;;;9.28;100.00
7966;BME280;4028;43.272;26.932;2022-11-24T00:50:38;98113.47;;;9.28;100.00
7966;BME280;4028;43.272;26.932;2022-11-24T00:53:04;98107.63;;;9.16;100.00
7966;BME280;4028;43.272;26.932;2022-11-24T00:55:29;98111.72;;;9.10;100.00
7966;BME280;4028;43.272;26.932;2022-11-24T00:57:55;98117.50;;;9.06;100.00
7966;BME280;4028;43.272;26.932;2022-11-24T01:00:20;98118.69;;;9.11;100.00
7966;BME280;4028;43.272;26.932;2022-11-24T01:02:46;98116.53;;;9.15;100.00
7966;BME280;4028;43.272;26.932;2022-11-24T01:05:11;98117.22;;;9.25;100.00
7966;BME280;4028;43.272;26.932;2022-11-24T01:07:37;98108.13;;;9.20;100.00
7966;BME280;4028;43.272;26.932;2022-11-24T01:10:03;98109.31;;;9.17;100.00
7966;BME280;4028;43.272;26.932;2022-11-24T01:12:29;98105.28;;;9.05;100.00
7966;BME280;4028;43.272;26.932;2022-11-24T01:14:54;98104.66;;;9.11;100.00
7966;BME280;4028;43.272;26.932;2022-11-24T01:17:20;98114.94;;;9.22;100.00
7966;BME280;4028;43.272;26.932;2022-11-24T01:19:45;98114.72;;;9.16;100.00
7966;BME280;4028;43.272;26.932;2022-11-24T01:22:14;98113.41;;;9.20;100.00
7966;BME280;4028;43.272;26.932;2022-11-24T01:24:40;98113.28;;;9.29;100.00
7966;BME280;4028;43.272;26.932;2022-11-24T01:27:06;98107.34;;;9.27;100.00
7966;BME280;4028;43.272;26.932;2022-11-24T01:29:31;98103.88;;;9.35;100.00
7966;BME280;4028;43.272;26.932;2022-11-24T01:31:57;98104.72;;;9.35;100.00
7966;BME280;4028;43.272;26.932;2022-11-24T01:34:22;98111.63;;;9.28;100.00
7966;BME280;4028;43.272;26.932;2022-11-24T01:36:48;98114.94;;;9.22;100.00
7966;BME280;4028;43.272;26.932;2022-11-24T01:39:13;98112.25;;;9.14;100.00
7966;BME280;4028;43.272;26.932;2022-11-24T01:41:39;98115.06;;;9.21;100.00
7966;BME280;4028;43.272;26.932;2022-11-24T01:44:25;98119.69;;;9.19;100.00
7966;BME280;4028;43.272;26.932;2022-11-24T01:46:55;98115.88;;;9.13;100.00
7966;BME280;4028;43.272;26.932;2022-11-24T01:49:37;98111.06;;;9.08;100.00
7966;BME280;4028;43.272;26.932;2022-11-24T01:52:13;98108.47;;;9.17;100.00
7966;BME280;4028;43.272;26.932;2022-11-24T01:54:50;98106.16;;;9.14;100.00
7966;BME280;4028;43.272;26.932;2022-11-24T01:57:27;98106.44;;;9.10;100.00
7966;BME280;4028;43.272;26.932;2022-11-24T02:00:13;98111.72;;;9.10;100.00
7966;BME280;4028;43.272;26.932;2022-11-24T02:02:40;98051.75;;;8.78;100.00
7966;BME280;4028;43.272;26.932;2022-11-24T02:05:16;98111.41;;;9.14;100.00
7966;BME280;4028;43.272;26.932;2022-11-24T02:07:43;98107.00;;;9.22;100.00
7966;BME280;4028;43.272;26.932;2022-11-24T02:10:12;98105.84;;;9.17;100.00
7966;BME280;4028;43.272;26.932;2022-11-24T02:12:40;98094.75;;;9.13;100.00
7966;BME280;4028;43.272;26.932;2022-11-24T02:15:08;98103.69;;;9.12;100.00
7966;BME280;4028;43.272;26.932;2022-11-24T02:17:34;98112.78;;;9.26;100.00
7966;BME280;4028;43.272;26.932;2022-11-24T02:20:03;98110.66;;;9.29;100.00
7966;BME280;4028;43.272;26.932;2022-11-24T02:25:15;98099.44;;;9.27;100.00
7966;BME280;4028;43.272;26.932;2022-11-24T02:27:44;98100.88;;;9.14;100.00
7966;BME280;4028;43.272;26.932;2022-11-24T02:30:10;98098.19;;;9.05;100.00
7966;BME280;4028;43.272;26.932;2022-11-24T02:32:38;98102.97;;;9.02;100.00
7966;BME280;4028;43.272;26.932;2022-11-24T02:35:05;98103.44;;;8.97;100.00
7966;BME280;4028;43.272;26.932;2022-11-24T02:37:31;98107.44;;;9.01;100.00
7966;BME280;4028;43.272;26.932;2022-11-24T02:39:57;98110.91;;;9.02;100.00
7966;BME280;4028;43.272;26.932;2022-11-24T02:42:22;98108.38;;;8.92;100.00
7966;BME280;4028;43.272;26.932;2022-11-24T02:44:53;98109.59;;;9.06;100.00
7966;BME280;4028;43.272;26.932;2022-11-24T02:47:20;98112.84;;;9.00;100.00
7966;BME280;4028;43.272;26.932;2022-11-24T02:49:45;98108.53;;;8.91;100.00
7966;BME280;4028;43.272;26.932;2022-11-24T02:52:11;98111.50;;;8.88;100.00
7966;BME280;4028;43.272;26.932;2022-11-24T02:54:36;98106.03;;;8.81;100.00
7966;BME280;4028;43.272;26.932;2022-11-24T02:57:02;98108.31;;;8.76;100.00
7966;BME280;4028;43.272;26.932;2022-11-24T02:59:27;98108.63;;;8.73;100.00
7966;BME280;4028;43.272;26.932;2022-11-24T03:01:53;98113.88;;;8.73;100.00
7966;BME280;4028;43.272;26.932;2022-11-24T03:04:18;98111.41;;;8.71;100.00
7966;BME280;4028;43.272;26.932;2022-11-24T03:06:44;98111.06;;;8.66;100.00
7966;BME280;4028;43.272;26.932;2022-11-24T03:09:09;98115.50;;;8.66;100.00
7966;BME280;4028;43.272;26.932;2022-11-24T03:11:36;98110.19;;;8.57;100.00
7966;BME280;4028;43.272;26.932;2022-11-24T03:14:02;98102.47;;;8.64;100.00
7966;BME280;4028;43.272;26.932;2022-11-24T03:16:27;98110.69;;;8.61;100.00
7966;BME280;4028;43.272;26.932;2022-11-24T03:18:53;98114.47;;;8.58;100.00
7966;BME280;4028;43.272;26.932;2022-11-24T03:21:18;98095.41;;;8.39;100.00
7966;BME280;4028;43.272;26.932;2022-11-24T03:23:44;98117.53;;;8.46;100.00
7966;BME280;4028;43.272;26.932;2022-11-24T03:26:11;98114.72;;;8.47;100.00
7966;BME280;4028;43.272;26.932;2022-11-24T03:28:37;98118.34;;;8.46;100.00
7966;BME280;4028;43.272;26.932;2022-11-24T03:31:03;98115.34;;;8.41;100.00
7966;BME280;4028;43.272;26.932;2022-11-24T03:33:29;98109.91;;;8.43;100.00
7966;BME280;4028;43.272;26.932;2022-11-24T03:35:54;98119.47;;;8.44;100.00
7966;BME280;4028;43.272;26.932;2022-11-24T03:38:20;98134.16;;;8.46;100.00
7966;BME280;4028;43.272;26.932;2022-11-24T03:40:45;98138.09;;;8.42;100.00
7966;BME280;4028;43.272;26.932;2022-11-24T03:43:11;98140.56;;;8.44;100.00
7966;BME280;4028;43.272;26.932;2022-11-24T03:45:36;98149.81;;;8.48;100.00
7966;BME280;4028;43.272;26.932;2022-11-24T03:48:02;98117.06;;;8.32;100.00
7966;BME280;4028;43.272;26.932;2022-11-24T03:50:27;98150.50;;;8.50;100.00
7966;BME280;4028;43.272;26.932;2022-11-24T03:52:53;98147.72;;;8.51;100.00
7966;BME280;4028;43.272;26.932;2022-11-24T03:55:18;98157.28;;;8.52;100.00
7966;BME280;4028;43.272;26.932;2022-11-24T03:57:44;98158.25;;;8.51;100.00
7966;BME280;4028;43.272;26.932;2022-11-24T04:00:10;98152.47;;;8.48;100.00
7966;BME280;4028;43.272;26.932;2022-11-24T04:02:36;98148.72;;;8.50;100.00
7966;BME280;4028;43.272;26.932;2022-11-24T04:05:03;98157.44;;;8.51;100.00
7966;BME280;4028;43.272;26.932;2022-11-24T04:07:28;98167.56;;;8.64;100.00
7966;BME280;4028;43.272;26.932;2022-11-24T04:09:53;98171.72;;;8.66;100.00
7966;BME280;4028;43.272;26.932;2022-11-24T04:12:19;98171.09;;;8.72;100.00
7966;BME280;4028;43.272;26.932;2022-11-24T04:15:04;98173.28;;;8.85;100.00
7966;BME280;4028;43.272;26.932;2022-11-24T04:17:29;98176.44;;;8.89;100.00
7966;BME280;4028;43.272;26.932;2022-11-24T04:19:55;98180.72;;;8.90;100.00
7966;BME280;4028;43.272;26.932;2022-11-24T04:22:20;98184.16;;;8.82;100.00
7966;BME280;4028;43.272;26.932;2022-11-24T04:24:46;98180.84;;;8.80;100.00
7966;BME280;4028;43.272;26.932;2022-11-24T04:27:11;98193.72;;;8.83;100.00
7966;BME280;4028;43.272;26.932;2022-11-24T04:29:37;98203.63;;;8.81;100.00
7966;BME280;4028;43.272;26.932;2022-11-24T04:32:02;98206.16;;;8.91;100.00
7966;BME280;4028;43.272;26.932;2022-11-24T04:34:28;98211.25;;;8.92;100.00
7966;BME280;4028;43.272;26.932;2022-11-24T04:36:53;98206.97;;;8.91;100.00
7966;BME280;4028;43.272;26.932;2022-11-24T04:39:19;98215.09;;;8.98;100.00
7966;BME280;4028;43.272;26.932;2022-11-24T04:41:46;98216.34;;;8.85;100.00
7966;BME280;4028;43.272;26.932;2022-11-24T04:44:12;98223.72;;;8.82;100.00
7966;BME280;4028;43.272;26.932;2022-11-24T04:46:37;98221.91;;;8.82;100.00
7966;BME280;4028;43.272;26.932;2022-11-24T04:49:02;98227.84;;;8.84;100.00
7966;BME280;4028;43.272;26.932;2022-11-24T04:51:28;98232.31;;;8.84;100.00
7966;BME280;4028;43.272;26.932;2022-11-24T04:53:53;98239.22;;;8.85;100.00
7966;BME280;4028;43.272;26.932;2022-11-24T04:56:19;98242.91;;;8.92;100.00
7966;BME280;4028;43.272;26.932;2022-11-24T04:58:47;98209.66;;;8.73;100.00
7966;BME280;4028;43.272;26.932;2022-11-24T05:01:13;98252.94;;;8.89;100.00
7966;BME280;4028;43.272;26.932;2022-11-24T05:03:39;98241.03;;;8.84;100.00
7966;BME280;4028;43.272;26.932;2022-11-24T05:06:05;98260.69;;;8.90;100.00
7966;BME280;4028;43.272;26.932;2022-11-24T05:08:31;98250.00;;;8.92;100.00
7966;BME280;4028;43.272;26.932;2022-11-24T05:10:57;98248.59;;;9.05;100.00
7966;BME280;4028;43.272;26.932;2022-11-24T05:13:22;98254.22;;;9.10;100.00
7966;BME280;4028;43.272;26.932;2022-11-24T05:15:47;98259.84;;;9.07;100.00
7966;BME280;4028;43.272;26.932;2022-11-24T05:18:13;98263.84;;;9.11;100.00
7966;BME280;4028;43.272;26.932;2022-11-24T05:20:40;98252.28;;;9.13;100.00
7966;BME280;4028;43.272;26.932;2022-11-24T05:23:09;98265.50;;;9.21;100.00
7966;BME280;4028;43.272;26.932;2022-11-24T05:25:35;98266.19;;;9.23;100.00
7966;BME280;4028;43.272;26.932;2022-11-24T05:28:05;98268.00;;;9.22;100.00
7966;BME280;4028;43.272;26.932;2022-11-24T05:30:33;98267.69;;;9.25;100.00
7966;BME280;4028;43.272;26.932;2022-11-24T05:33:03;98271.19;;;9.34;100.00
7966;BME280;4028;43.272;26.932;2022-11-24T05:35:29;98273.38;;;9.38;100.00
7966;BME280;4028;43.272;26.932;2022-11-24T05:37:57;98273.69;;;9.35;100.00
7966;BME280;4028;43.272;26.932;2022-11-24T05:40:22;98276.78;;;9.31;100.00
7966;BME280;4028;43.272;26.932;2022-11-24T05:42:48;98280.22;;;9.23;100.00
7966;BME280;4028;43.272;26.932;2022-11-24T05:45:19;98277.94;;;9.28;100.00
7966;BME280;4028;43.272;26.932;2022-11-24T05:47:46;98289.03;;;9.32;100.00
7966;BME280;4028;43.272;26.932;2022-11-24T05:50:15;98289.56;;;9.44;100.00
7966;BME280;4028;43.272;26.932;2022-11-24T05:52:41;98281.81;;;9.42;100.00
7966;BME280;4028;43.272;26.932;2022-11-24T05:55:08;98292.94;;;9.28;100.00
7966;BME280;4028;43.272;26.932;2022-11-24T05:57:34;98306.88;;;9.12;100.00
7966;BME280;4028;43.272;26.932;2022-11-24T06:00:00;98310.00;;;9.16;100.00
7966;BME280;4028;43.272;26.932;2022-11-24T06:02:26;98307.13;;;9.27;100.00
7966;BME280;4028;43.272;26.932;2022-11-24T06:04:51;98309.81;;;9.35;100.00
7966;BME280;4028;43.272;26.932;2022-11-24T06:07:17;98319.25;;;9.37;100.00
7966;BME280;4028;43.272;26.932;2022-11-24T06:09:43;98319.75;;;9.41;100.00
7966;BME280;4028;43.272;26.932;2022-11-24T06:12:10;98315.44;;;9.40;100.00
7966;BME280;4028;43.272;26.932;2022-11-24T06:14:36;98326.06;;;9.48;100.00
7966;BME280;4028;43.272;26.932;2022-11-24T06:17:02;98320.69;;;9.58;100.00
7966;BME280;4028;43.272;26.932;2022-11-24T06:19:28;98324.63;;;9.54;100.00
7966;BME280;4028;43.272;26.932;2022-11-24T06:21:53;98317.97;;;9.50;100.00
7966;BME280;4028;43.272;26.932;2022-11-24T06:24:19;98316.53;;;9.55;100.00
7966;BME280;4028;43.272;26.932;2022-11-24T06:26:45;98337.84;;;9.62;100.00
7966;BME280;4028;43.272;26.932;2022-11-24T06:29:10;98333.72;;;9.59;100.00
7966;BME280;4028;43.272;26.932;2022-11-24T06:31:36;98340.66;;;9.60;100.00
7966;BME280;4028;43.272;26.932;2022-11-24T06:34:05;98340.00;;;9.58;100.00
7966;BME280;4028;43.272;26.932;2022-11-24T06:36:30;98337.66;;;9.55;100.00
7966;BME280;4028;43.272;26.932;2022-11-24T06:38:56;98343.81;;;9.64;100.00
7966;BME280;4028;43.272;26.932;2022-11-24T06:41:21;98350.09;;;9.63;100.00
7966;BME280;4028;43.272;26.932;2022-11-24T06:43:47;98350.75;;;9.65;100.00
7966;BME280;4028;43.272;26.932;2022-11-24T06:46:12;98359.03;;;9.70;100.00
7966;BME280;4028;43.272;26.932;2022-11-24T06:48:38;98355.09;;;9.74;100.00
7966;BME280;4028;43.272;26.932;2022-11-24T06:51:09;98359.06;;;9.78;100.00
7966;BME280;4028;43.272;26.932;2022-11-24T06:53:36;98368.81;;;9.78;100.00
7966;BME280;4028;43.272;26.932;2022-11-24T06:56:07;98364.97;;;9.72;100.00
7966;BME280;4028;43.272;26.932;2022-11-24T06:58:33;98363.31;;;9.71;100.00
7966;BME280;4028;43.272;26.932;2022-11-24T07:00:59;98370.19;;;9.90;100.00
7966;BME280;4028;43.272;26.932;2022-11-24T07:03:24;98372.00;;;9.89;100.00
7966;BME280;4028;43.272;26.932;2022-11-24T07:05:59;98368.00;;;9.85;100.00
7966;BME280;4028;43.272;26.932;2022-11-24T07:08:25;98369.56;;;9.96;100.00
7966;BME280;4028;43.272;26.932;2022-11-24T07:10:50;98367.25;;;10.01;100.00
7966;BME280;4028;43.272;26.932;2022-11-24T07:13:19;98363.78;;;10.01;100.00
7966;BME280;4028;43.272;26.932;2022-11-24T07:15:45;98350.56;;;10.01;100.00
7966;BME280;4028;43.272;26.932;2022-11-24T07:18:11;98349.28;;;10.05;100.00
7966;BME280;4028;43.272;26.932;2022-11-24T07:20:36;98343.34;;;10.11;100.00
7966;BME280;4028;43.272;26.932;2022-11-24T07:23:02;98353.25;;;10.09;100.00
7966;BME280;4028;43.272;26.932;2022-11-24T07:25:27;98342.38;;;10.20;100.00
7966;BME280;4028;43.272;26.932;2022-11-24T07:27:57;98345.06;;;10.28;100.00
7966;BME280;4028;43.272;26.932;2022-11-24T07:30:24;98349.75;;;10.34;100.00
7966;BME280;4028;43.272;26.932;2022-11-24T07:32:50;98345.13;;;10.45;100.00
7966;BME280;4028;43.272;26.932;2022-11-24T07:35:15;98337.69;;;10.40;100.00
7966;BME280;4028;43.272;26.932;2022-11-24T07:37:42;98338.69;;;10.47;100.00
7966;BME280;4028;43.272;26.932;2022-11-24T07:40:08;98330.56;;;10.40;100.00
7966;BME280;4028;43.272;26.932;2022-11-24T07:42:34;98324.28;;;10.41;100.00
7966;BME280;4028;43.272;26.932;2022-11-24T07:44:59;98332.06;;;10.59;100.00
7966;BME280;4028;43.272;26.932;2022-11-24T07:47:25;98337.53;;;10.74;100.00
7966;BME280;4028;43.272;26.932;2022-11-24T07:49:50;98335.41;;;10.94;100.00
7966;BME280;4028;43.272;26.932;2022-11-24T07:52:16;98341.69;;;11.01;100.00
7966;BME280;4028;43.272;26.932;2022-11-24T07:54:41;98332.59;;;11.04;100.00
7966;BME280;4028;43.272;26.932;2022-11-24T07:57:07;98314.72;;;10.98;100.00
7966;BME280;4028;43.272;26.932;2022-11-24T07:59:32;98335.59;;;11.01;100.00
7966;BME280;4028;43.272;26.932;2022-11-24T08:01:58;98335.59;;;11.01;100.00
7966;BME280;4028;43.272;26.932;2022-11-24T08:04:23;98324.97;;;10.84;100.00
7966;BME280;4028;43.272;26.932;2022-11-24T08:06:49;98335.91;;;10.81;100.00
7966;BME280;4028;43.272;26.932;2022-11-24T08:09:14;98339.34;;;10.57;100.00
7966;BME280;4028;43.272;26.932;2022-11-24T08:11:40;98341.50;;;10.46;100.00
7966;BME280;4028;43.272;26.932;2022-11-24T08:14:05;98337.53;;;10.50;100.00
7966;BME280;4028;43.272;26.932;2022-11-24T08:16:31;98347.91;;;10.43;100.00
7966;BME280;4028;43.272;26.932;2022-11-24T08:18:56;98347.25;;;10.49;100.00
7966;BME280;4028;43.272;26.932;2022-11-24T08:21:22;98361.81;;;10.53;100.00
7966;BME280;4028;43.272;26.932;2022-11-24T08:23:48;98359.00;;;10.47;100.00
7966;BME280;4028;43.272;26.932;2022-11-24T08:26:15;98358.19;;;10.46;100.00
7966;BME280;4028;43.272;26.932;2022-11-24T08:28:46;98362.81;;;10.44;100.00
7966;BME280;4028;43.272;26.932;2022-11-24T08:31:14;98355.38;;;10.48;100.00
7966;BME280;4028;43.272;26.932;2022-11-24T08:33:41;98360.66;;;10.48;100.00
7966;BME280;4028;43.272;26.932;2022-11-24T08:36:09;98350.28;;;10.62;100.00
7966;BME280;4028;43.272;26.932;2022-11-24T08:38:35;98350.75;;;10.58;100.00
7966;BME280;4028;43.272;26.932;2022-11-24T08:41:02;98331.75;;;10.46;100.00
7966;BME280;4028;43.272;26.932;2022-11-24T08:43:28;98354.75;;;10.62;100.00
7966;BME280;4028;43.272;26.932;2022-11-24T08:45:57;98348.28;;;10.64;100.00
7966;BME280;4028;43.272;26.932;2022-11-24T08:48:22;98358.03;;;10.64;100.00
7966;BME280;4028;43.272;26.932;2022-11-24T08:50:48;98365.31;;;10.62;100.00
7966;BME280;4028;43.272;26.932;2022-11-24T08:53:13;98360.19;;;10.44;100.00
7966;BME280;4028;43.272;26.932;2022-11-24T08:55:39;98373.75;;;10.57;100.00
7966;BME280;4028;43.272;26.932;2022-11-24T08:58:05;98370.22;;;10.32;100.00
7966;BME280;4028;43.272;26.932;2022-11-24T09:00:30;98362.09;;;10.26;100.00
7966;BME280;4028;43.272;26.932;2022-11-24T09:02:56;98376.78;;;10.28;100.00
7966;BME280;4028;43.272;26.932;2022-11-24T09:05:22;98369.41;;;10.40;100.00
7966;BME280;4028;43.272;26.932;2022-11-24T09:07:48;98373.22;;;10.46;100.00
7966;BME280;4028;43.272;26.932;2022-11-24T09:10:13;98376.53;;;10.48;100.00
7966;BME280;4028;43.272;26.932;2022-11-24T09:12:39;98374.06;;;10.54;100.00
7966;BME280;4028;43.272;26.932;2022-11-24T09:15:05;98371.22;;;10.48;100.00
7966;BME280;4028;43.272;26.932;2022-11-24T09:17:31;98372.41;;;10.45;100.00
7966;BME280;4028;43.272;26.932;2022-11-24T09:19:57;98365.63;;;10.51;100.00
7966;BME280;4028;43.272;26.932;2022-11-24T09:22:22;98375.53;;;10.49;100.00
7966;BME280;4028;43.272;26.932;2022-11-24T09:24:48;98374.72;;;10.40;100.00
7966;BME280;4028;43.272;26.932;2022-11-24T09:27:13;98368.75;;;10.54;100.00
7966;BME280;4028;43.272;26.932;2022-11-24T09:29:39;98350.78;;;10.15;100.00
7966;BME280;4028;43.272;26.932;2022-11-24T09:32:04;98375.50;;;10.24;100.00
7966;BME280;4028;43.272;26.932;2022-11-24T09:34:31;98382.00;;;10.12;100.00
7966;BME280;4028;43.272;26.932;2022-11-24T09:36:56;98396.22;;;10.11;100.00
7966;BME280;4028;43.272;26.932;2022-11-24T09:39:23;98393.84;;;10.00;100.00
7966;BME280;4028;43.272;26.932;2022-11-24T09:44:37;98394.09;;;9.80;100.00
7966;BME280;4028;43.272;26.932;2022-11-24T09:49:59;98402.84;;;9.55;100.00
7966;BME280;4028;43.272;26.932;2022-11-24T10:00:51;98423.69;;;9.58;100.00
7966;BME280;4028;43.272;26.932;2022-11-24T10:03:41;98416.97;;;9.72;100.00
7966;BME280;4028;43.272;26.932;2022-11-24T10:06:19;98417.59;;;9.66;100.00
7966;BME280;4028;43.272;26.932;2022-11-24T10:22:45;98425.50;;;9.92;100.00
7966;BME280;4028;43.272;26.932;2022-11-24T10:25:25;98423.09;;;9.98;100.00
7966;BME280;4028;43.272;26.932;2022-11-24T10:27:59;98428.69;;;9.95;100.00
7966;BME280;4028;43.272;26.932;2022-11-24T10:30:26;98428.69;;;9.95;100.00
7966;BME280;4028;43.272;26.932;2022-11-24T10:35:28;98428.97;;;9.92;100.00
7966;BME280;4028;43.272;26.932;2022-11-24T10:40:56;98426.22;;;9.68;100.00
7966;BME280;4028;43.272;26.932;2022-11-24T10:43:27;98437.81;;;9.75;100.00
7966;BME280;4028;43.272;26.932;2022-11-24T10:46:09;98439.94;;;9.71;100.00
7966;BME280;4028;43.272;26.932;2022-11-24T10:48:40;98433.78;;;9.62;100.00
7966;BME280;4028;43.272;26.932;2022-11-24T10:51:34;98435.91;;;9.59;100.00
7966;BME280;4028;43.272;26.932;2022-11-24T10:54:21;98443.44;;;9.54;100.00
7966;BME280;4028;43.272;26.932;2022-11-24T10:56:52;98425.50;;;9.57;100.00
7966;BME280;4028;43.272;26.932;2022-11-24T10:59:36;98439.91;;;9.45;100.00
7966;BME280;4028;43.272;26.932;2022-11-24T11:02:29;98432.41;;;9.32;100.00
7966;BME280;4028;43.272;26.932;2022-11-24T11:04:55;98436.31;;;9.28;100.00
7966;BME280;4028;43.272;26.932;2022-11-24T11:07:24;98442.34;;;9.38;100.00
7966;BME280;4028;43.272;26.932;2022-11-24T11:10:20;98439.38;;;9.42;100.00
7966;BME280;4028;43.272;26.932;2022-11-24T11:12:46;98433.84;;;9.27;100.00
7966;BME280;4028;43.272;26.932;2022-11-24T11:15:21;98435.94;;;9.05;100.00
7966;BME280;4028;43.272;26.932;2022-11-24T11:17:48;98436.78;;;8.88;100.00
7966;BME280;4028;43.272;26.932;2022-11-24T11:20:21;98442.53;;;9.01;100.00
7966;BME280;4028;43.272;26.932;2022-11-24T11:22:52;98445.00;;;8.85;100.00
7966;BME280;4028;43.272;26.932;2022-11-24T11:25:23;98447.88;;;8.92;100.00
7966;BME280;4028;43.272;26.932;2022-11-24T11:28:10;98446.59;;;8.78;100.00
7966;BME280;4028;43.272;26.932;2022-11-24T11:30:58;98439.81;;;8.75;100.00
7966;BME280;4028;43.272;26.932;2022-11-24T11:33:29;98446.03;;;8.74;100.00
7966;BME280;4028;43.272;26.932;2022-11-24T11:35:56;98428.94;;;8.78;100.00
7966;BME280;4028;43.272;26.932;2022-11-24T11:38:24;98431.03;;;8.75;100.00
7966;BME280;4028;43.272;26.932;2022-11-24T11:40:51;98428.88;;;8.70;100.00
7966;BME280;4028;43.272;26.932;2022-11-24T11:43:28;98436.94;;;8.87;100.00
7966;BME280;4028;43.272;26.932;2022-11-24T11:46:01;98442.28;;;8.95;100.00
7966;BME280;4028;43.272;26.932;2022-11-24T11:48:33;98445.22;;;8.74;100.00
7966;BME280;4028;43.272;26.932;2022-11-24T12:00:17;98437.31;;;8.74;100.00
7966;BME280;4028;43.272;26.932;2022-11-24T12:11:00;98447.56;;;8.77;100.00
7966;BME280;4028;43.272;26.932;2022-11-24T12:13:38;98445.25;;;8.92;100.00
7966;BME280;4028;43.272;26.932;2022-11-24T12:27:58;98460.63;;;8.96;100.00
7966;BME280;4028;43.272;26.932;2022-11-24T12:39:42;98479.53;;;8.92;100.00
7966;BME280;4028;43.272;26.932;2022-11-24T12:43:16;98469.59;;;8.85;100.00
7966;BME280;4028;43.272;26.932;2022-11-24T12:45:45;98474.94;;;8.94;100.00
7966;BME280;4028;43.272;26.932;2022-11-24T12:48:33;98474.50;;;8.80;100.00
7966;BME280;4028;43.272;26.932;2022-11-24T12:51:00;98469.28;;;8.89;100.00
7966;BME280;4028;43.272;26.932;2022-11-24T12:53:31;98465.28;;;8.84;100.00
7966;BME280;4028;43.272;26.932;2022-11-24T12:56:03;98463.72;;;8.92;100.00
7966;BME280;4028;43.272;26.932;2022-11-24T12:59:02;98465.91;;;8.96;100.00
7966;BME280;4028;43.272;26.932;2022-11-24T13:01:39;98457.22;;;9.04;100.00
7966;BME280;4028;43.272;26.932;2022-11-24T13:09:33;98453.22;;;8.82;100.00
7966;BME280;4028;43.272;26.932;2022-11-24T13:12:11;98445.28;;;8.64;100.00
7966;BME280;4028;43.272;26.932;2022-11-24T13:14:38;98447.09;;;8.64;100.00
7966;BME280;4028;43.272;26.932;2022-11-24T13:19:49;98463.16;;;8.70;100.00
7966;BME280;4028;43.272;26.932;2022-11-24T13:22:22;98469.50;;;8.77;100.00
7966;BME280;4028;43.272;26.932;2022-11-24T13:25:07;98463.59;;;8.66;100.00
7966;BME280;4028;43.272;26.932;2022-11-24T13:27:41;98462.84;;;8.73;100.00
7966;BME280;4028;43.272;26.932;2022-11-24T13:33:27;98445.09;;;8.75;100.00
7966;BME280;4028;43.272;26.932;2022-11-24T13:38:51;98457.06;;;8.88;100.00
7966;BME280;4028;43.272;26.932;2022-11-24T13:47:02;98449.50;;;8.57;100.00
7966;BME280;4028;43.272;26.932;2022-11-24T13:49:41;98450.66;;;8.72;100.00
7966;BME280;4028;43.272;26.932;2022-11-24T13:57:46;98445.38;;;8.90;100.00
7966;BME280;4028;43.272;26.932;2022-11-24T14:00:27;98456.00;;;8.98;100.00
7966;BME280;4028;43.272;26.932;2022-11-24T14:03:00;98455.94;;;8.90;100.00
7966;BME280;4028;43.272;26.932;2022-11-24T14:05:38;98458.50;;;8.82;100.00
7966;BME280;4028;43.272;26.932;2022-11-24T14:08:06;98469.88;;;8.82;100.00
7966;BME280;4028;43.272;26.932;2022-11-24T14:10:36;98469.06;;;8.82;100.00
7966;BME280;4028;43.272;26.932;2022-11-24T14:18:31;98460.03;;;8.57;100.00
7966;BME280;4028;43.272;26.932;2022-11-24T14:20:58;98477.25;;;8.79;100.00
7966;BME280;4028;43.272;26.932;2022-11-24T14:23:24;98479.75;;;8.80;100.00
7966;BME280;4028;43.272;26.932;2022-11-24T14:25:51;98475.69;;;8.86;100.00
7966;BME280;4028;43.272;26.932;2022-11-24T14:28:27;98474.16;;;8.83;100.00
7966;BME280;4028;43.272;26.932;2022-11-24T14:31:22;98477.78;;;8.82;100.00
7966;BME280;4028;43.272;26.932;2022-11-24T14:33:49;98482.78;;;8.85;100.00
7966;BME280;4028;43.272;26.932;2022-11-24T14:36:16;98479.75;;;8.80;100.00
7966;BME280;4028;43.272;26.932;2022-11-24T14:38:42;98481.03;;;8.76;100.00
7966;BME280;4028;43.272;26.932;2022-11-24T14:41:25;98483.41;;;8.70;100.00
7966;BME280;4028;43.272;26.932;2022-11-24T14:46:33;98477.44;;;8.50;100.00
7966;BME280;4028;43.272;26.932;2022-11-24T14:49:01;98481.50;;;8.34;100.00
7966;BME280;4028;43.272;26.932;2022-11-24T14:51:33;98462.75;;;8.10;100.00
7966;BME280;4028;43.272;26.932;2022-11-24T14:54:14;98482.59;;;8.42;100.00
7966;BME280;4028;43.272;26.932;2022-11-24T14:56:55;98481.13;;;8.29;100.00
7966;BME280;4028;43.272;26.932;2022-11-24T14:59:23;98485.53;;;8.29;100.00
7966;BME280;4028;43.272;26.932;2022-11-24T15:01:49;98504.38;;;8.34;100.00
7966;BME280;4028;43.272;26.932;2022-11-24T15:04:21;98502.63;;;8.25;100.00
7966;BME280;4028;43.272;26.932;2022-11-24T15:12:39;98503.06;;;8.20;100.00
7966;BME280;4028;43.272;26.932;2022-11-24T15:15:17;98513.03;;;8.26;100.00
7966;BME280;4028;43.272;26.932;2022-11-24T15:17:53;98503.72;;;8.22;100.00